Legend Of The Seas — C6SL5 — position and weather

sailwx.info

Track history (hours):
 
Tides and Currents Weather Stations Pressure Air Temp Water Temp Dewpoint Dewpoint Depression Visibility Wind Speed Wind Dir Waves Ship Positions

Legend Of The Seas

Operator: Royal Caribbean Cruises Ltd

Last reported at 2019-Jul-22 14:31 UTC. Time now 2019-Jul-22 14:37 UTC.
Position N 40°50' E 014°15'.

Type: Passenger vessel. MMSI: 311378000.

Date/timePositionNaut miles runAvg speedWind from/ knotsBaromVisibWave heightAir tempDewpointWater temp
2019-Jul-22 14:31N 40°50' E 014°15'0 0.0
2019-Jul-22 14:01N 40°50' E 014°15'0 0.0
2019-Jul-22 13:31N 40°50' E 014°15'0 0.0
2019-Jul-22 13:01N 40°50' E 014°15'0 0.0
2019-Jul-22 12:31N 40°50' E 014°15'0 0.0
2019-Jul-22 11:58N 40°50' E 014°15'0 0.0
2019-Jul-22 11:31N 40°50' E 014°15'0 0.0
2019-Jul-22 10:58N 40°50' E 014°15'0 0.0
2019-Jul-22 10:28N 40°50' E 014°15'0 0.0
2019-Jul-22 09:58N 40°50' E 014°15'0 0.0
2019-Jul-22 09:28N 40°50' E 014°15'0 0.0
2019-Jul-22 09:01N 40°50' E 014°15'0 0.0
2019-Jul-22 08:28N 40°50' E 014°15'0 0.0
2019-Jul-22 07:58N 40°50' E 014°15'0 0.0
2019-Jul-22 07:28N 40°50' E 014°15'0 0.0
2019-Jul-22 06:58N 40°50' E 014°15'0 0.0
2019-Jul-22 06:31N 40°50' E 014°15'0 0.0
2019-Jul-22 05:58N 40°50' E 014°15'0 0.1
2019-Jul-22 05:31N 40°50' E 014°15'2 3.9
2019-Jul-22 05:00N 40°49' E 014°17'713.6
2019-Jul-22 04:30N 40°43' E 014°12'816.1
2019-Jul-22 04:00N 40°37' E 014°06'815.8
2019-Jul-22 03:30N 40°32' E 013°57'815.8
2019-Jul-22 03:00N 40°28' E 013°48'815.8
2019-Jul-22 02:30N 40°25' E 013°39'815.9
2019-Jul-22 02:00N 40°21' E 013°30'816.0
2019-Jul-22 01:30N 40°18' E 013°20'815.7
2019-Jul-22 01:00N 40°15' E 013°10'815.6
2019-Jul-22 00:30N 40°12' E 013°01'815.7
2019-Jul-22 00:00N 40°08' E 012°52'815.7
2019-Jul-21 23:30N 40°05' E 012°43'815.7
2019-Jul-21 23:00N 40°01' E 012°34'815.6
2019-Jul-21 22:30N 39°58' E 012°24'815.7
2019-Jul-21 22:00N 39°55' E 012°15'815.6
2019-Jul-21 21:30N 39°51' E 012°06'815.6
2019-Jul-21 21:00N 39°48' E 011°57'815.5
2019-Jul-21 20:30N 39°45' E 011°48'918.6
2019-Jul-21 20:00N 39°41' E 011°37'1019.1
2019-Jul-21 19:30N 39°36' E 011°26'919.0
2019-Jul-21 19:00N 39°32' E 011°14'918.8
2019-Jul-21 18:30N 39°29' E 011°03'918.6
2019-Jul-21 18:00N 39°25' E 010°52'918.4
2019-Jul-21 17:30N 39°21' E 010°41'1918.6
2019-Jul-21 16:29N 39°13' E 010°19'918.8
2019-Jul-21 16:00N 39°09' E 010°09'5118.4
2019-Jul-21 13:13N 38°50' E 009°08'1218.4
2019-Jul-21 12:35N 38°45' E 008°54'318.2
2019-Jul-21 12:26N 38°44' E 008°51'817.9
2019-Jul-21 11:58N 38°44' E 008°40'1918.0
2019-Jul-21 10:54N 38°45' E 008°15'4418.3
2019-Jul-21 08:28N 38°49' E 007°18'817.9
2019-Jul-21 08:00N 38°50' E 007°08'1018.0
2019-Jul-21 07:27N 38°51' E 006°55'2217.7
2019-Jul-21 06:11N 38°54' E 006°27'317.7
2019-Jul-21 06:00N 38°54' E 006°23'1317.7
2019-Jul-21 05:17N 38°56' E 006°06'517.7
2019-Jul-21 05:00N 38°56' E 006°00'1717.8
2019-Jul-21 04:03N 38°58' E 005°39'117.9
2019-Jul-21 04:00N 38°59' E 005°37'917.8
2019-Jul-21 03:30N 38°60' E 005°26'917.9
2019-Jul-21 03:00N 39°01' E 005°15'918.0
2019-Jul-21 02:30N 39°02' E 005°03'1318.1
2019-Jul-21 01:49N 39°03' E 004°47'618.5
2019-Jul-21 01:29N 39°04' E 004°39'918.5
2019-Jul-21 01:00N 39°05' E 004°28'918.3
2019-Jul-21 00:30N 39°06' E 004°16'918.5
2019-Jul-21 00:00N 39°06' E 004°04'918.7
2019-Jul-20 23:30N 39°06' E 003°52'918.5
2019-Jul-20 23:00N 39°07' E 003°40'918.4
2019-Jul-20 22:30N 39°09' E 003°29'918.4
2019-Jul-20 22:00N 39°10' E 003°17'918.2
2019-Jul-20 21:30N 39°12' E 003°06'918.5
2019-Jul-20 21:00N 39°16' E 002°55'918.5
2019-Jul-20 20:30N 39°21' E 002°44'918.3
2019-Jul-20 20:00N 39°29' E 002°39'4 8.5
2019-Jul-20 19:30N 39°33' E 002°38'0 0.1
2019-Jul-20 19:00N 39°33' E 002°38'0 0.0
2019-Jul-20 18:27N 39°33' E 002°38'0 0.0
2019-Jul-20 18:00N 39°33' E 002°38'0 0.0
2019-Jul-20 17:27N 39°33' E 002°38'0 0.0
2019-Jul-20 16:57N 39°33' E 002°38'0 0.0
2019-Jul-20 16:30N 39°33' E 002°38'0 0.0
2019-Jul-20 15:57N 39°33' E 002°38'0 0.0
2019-Jul-20 15:27N 39°33' E 002°38'0 0.0
2019-Jul-20 14:57N 39°33' E 002°38'0 0.0
2019-Jul-20 14:24N 39°33' E 002°38'0 0.0
2019-Jul-20 13:57N 39°33' E 002°38'0 0.0
2019-Jul-20 13:27N 39°33' E 002°38'0 0.0
2019-Jul-20 12:57N 39°33' E 002°38'0 0.0
2019-Jul-20 12:30N 39°33' E 002°38'0 0.0
2019-Jul-20 11:57N 39°33' E 002°38'0 0.0
2019-Jul-20 11:27N 39°33' E 002°38'0 0.0
2019-Jul-20 10:57N 39°33' E 002°38'0 0.0
2019-Jul-20 10:30N 39°33' E 002°38'0 0.0
2019-Jul-20 10:00N 39°33' E 002°38'0 0.0
2019-Jul-20 09:30N 39°33' E 002°38'0 0.0
2019-Jul-20 08:57N 39°33' E 002°38'0 0.0
2019-Jul-20 08:27N 39°33' E 002°38'0 0.0
2019-Jul-20 07:57N 39°33' E 002°38'0 0.0
2019-Jul-20 07:27N 39°33' E 002°38'0 0.0
2019-Jul-20 06:57N 39°33' E 002°38'0 0.0
2019-Jul-20 06:30N 39°33' E 002°38'0 0.0
2019-Jul-20 06:00N 39°33' E 002°38'0 0.0
2019-Jul-20 05:30N 39°33' E 002°38'0 0.0
2019-Jul-20 04:57N 39°33' E 002°38'0 0.0
2019-Jul-20 04:30N 39°33' E 002°38'0 0.0
2019-Jul-20 04:00N 39°33' E 002°38'0 0.9
2019-Jul-20 03:30N 39°33' E 002°38'3 5.4
2019-Jul-20 03:00N 39°30' E 002°37'713.7
2019-Jul-20 02:30N 39°25' E 002°31'713.1
2019-Jul-20 02:00N 39°27' E 002°23'2613.2
2019-Jul-20 00:02N 39°51' E 002°10'013.6
2019-Jul-20 00:01N 39°51' E 002°10'713.9
2019-Jul-19 23:31N 39°58' E 002°09'1514.1
2019-Jul-19 22:28N 40°13' E 002°09'715.3
2019-Jul-19 22:00N 40°20' E 002°11'1915.2
2019-Jul-19 20:47N 40°38' E 002°11'415.4
2019-Jul-19 20:30N 40°42' E 002°11'1715.4
2019-Jul-19 19:25N 40°59' E 002°10'615.5
2019-Jul-19 19:01N 41°05' E 002°10'815.6
2019-Jul-19 18:31N 41°13' E 002°10'713.4
2019-Jul-19 18:00N 41°20' E 002°10'2 3.0
2019-Jul-19 17:28N 41°22' E 002°11'0 0.0
2019-Jul-19 16:58N 41°22' E 002°11'0 0.0
2019-Jul-19 16:28N 41°22' E 002°11'0 0.0
2019-Jul-19 15:58N 41°22' E 002°11'0 0.0
2019-Jul-19 15:28N 41°22' E 002°11'0 0.0
2019-Jul-19 06:52N 41°22' E 002°11'0 0.0
2019-Jul-19 06:30N 41°22' E 002°11'2 3.2
2019-Jul-19 06:00N 41°20' E 002°10'5 9.0
2019-Jul-19 05:30N 41°16' E 002°13'612.6
2019-Jul-19 05:00N 41°16' E 002°21'713.9
2019-Jul-19 04:31N 41°19' E 002°29'1214.1
2019-Jul-19 03:39N 41°25' E 002°44'416.2
2019-Jul-19 03:25N 41°27' E 002°48'18618.1
2019-Jul-18 17:07N 42°56' E 006°28'519.8
2019-Jul-18 16:52N 42°59' E 006°34'720.1
2019-Jul-18 16:31N 43°04' E 006°41'918.7
2019-Jul-18 16:01N 43°12' E 006°46'1018.7
2019-Jul-18 15:29N 43°22' E 006°46'1 0.1
2019-Jul-18 05:02N 43°23' E 006°47'1 8.9
2019-Jul-18 04:57N 43°22' E 006°48'4 9.9
2019-Jul-18 04:30N 43°22' E 006°54'816.1
2019-Jul-18 04:00N 43°24' E 007°05'816.8
2019-Jul-18 03:30N 43°26' E 007°16'917.2
2019-Jul-18 03:00N 43°28' E 007°28'816.9
2019-Jul-18 02:30N 43°30' E 007°39'816.7
2019-Jul-18 02:00N 43°32' E 007°50'816.4
2019-Jul-18 01:30N 43°34' E 008°01'815.2
2019-Jul-18 01:00N 43°36' E 008°11'0 0.5
2019-Jul-18 00:30N 43°36' E 008°11'0 0.4
2019-Jul-18 00:00N 43°36' E 008°12'0 0.6
2019-Jul-17 23:30N 43°36' E 008°12'1 1.5
2019-Jul-17 23:00N 43°36' E 008°13'3 6.6
2019-Jul-17 22:30N 43°36' E 008°18'815.1
2019-Jul-17 22:01N 43°38' E 008°28'815.9
2019-Jul-17 21:30N 43°40' E 008°39'815.7
2019-Jul-17 21:00N 43°42' E 008°49'815.8
2019-Jul-17 20:30N 43°45' E 008°59'815.7
2019-Jul-17 20:00N 43°47' E 009°10'815.4
2019-Jul-17 19:30N 43°49' E 009°20'815.3
2019-Jul-17 19:00N 43°50' E 009°30'815.4
2019-Jul-17 18:30N 43°52' E 009°41'815.4
2019-Jul-17 18:00N 43°55' E 009°51'714.8
2019-Jul-17 17:30N 43°58' E 009°60'4 7.8
2019-Jul-17 16:59N 44°02' E 010°02'0 0.0
2019-Jul-17 16:29N 44°02' E 010°02'0 0.0
2019-Jul-17 15:59N 44°02' E 010°02'0 0.0
2019-Jul-17 15:29N 44°02' E 010°02'0 0.0
2019-Jul-17 14:59N 44°02' E 010°02'0 0.0
2019-Jul-17 14:29N 44°02' E 010°02'0 0.0
2019-Jul-17 13:59N 44°02' E 010°02'0 0.0
2019-Jul-17 13:29N 44°02' E 010°02'0 0.0
2019-Jul-17 12:56N 44°02' E 010°02'0 0.0
2019-Jul-17 12:29N 44°02' E 010°02'0 0.0
2019-Jul-17 11:59N 44°02' E 010°02'0 0.0
2019-Jul-17 11:29N 44°02' E 010°02'0 0.0
2019-Jul-17 10:59N 44°02' E 010°02'0 0.0
2019-Jul-17 10:29N 44°02' E 010°02'0 0.0
2019-Jul-17 09:59N 44°02' E 010°02'0 0.0
2019-Jul-17 09:29N 44°02' E 010°02'0 0.0
2019-Jul-17 08:53N 44°02' E 010°02'0 0.0
2019-Jul-17 08:29N 44°02' E 010°02'0 0.0
2019-Jul-17 07:59N 44°02' E 010°02'0 0.0
2019-Jul-17 07:29N 44°02' E 010°02'0 0.0
2019-Jul-17 06:56N 44°02' E 010°02'0 0.0
2019-Jul-17 06:29N 44°02' E 010°02'0 0.0
2019-Jul-17 05:59N 44°02' E 010°02'0 0.7
2019-Jul-17 05:31N 44°02' E 010°03'510.5
2019-Jul-17 05:00N 43°56' E 010°01'714.4
2019-Jul-17 04:30N 43°50' E 009°58'815.8
2019-Jul-17 04:00N 43°43' E 009°52'815.3
2019-Jul-17 03:30N 43°36' E 009°47'815.8
2019-Jul-17 03:00N 43°29' E 009°44'815.8
2019-Jul-17 02:30N 43°21' E 009°42'815.8
2019-Jul-17 02:00N 43°13' E 009°40'815.9
2019-Jul-17 01:30N 43°05' E 009°38'816.0
2019-Jul-17 01:00N 42°57' E 009°41'815.4
2019-Jul-17 00:30N 42°51' E 009°46'815.9
2019-Jul-17 00:00N 42°46' E 009°55'816.2
2019-Jul-16 23:30N 42°42' E 010°04'1116.0
2019-Jul-16 22:48N 42°35' E 010°16'616.0
2019-Jul-16 22:27N 42°31' E 010°22'818.4
2019-Jul-16 22:00N 42°26' E 010°30'1019.3
2019-Jul-16 21:30N 42°19' E 010°40'1018.7
2019-Jul-16 20:58N 42°13' E 010°50'1019.3
2019-Jul-16 20:28N 42°09' E 011°02'44 2.0
2019-Jul-15 22:42N 41°39' E 010°19'315.0
2019-Jul-15 22:29N 41°38' E 010°15'714.9
2019-Jul-15 22:00N 41°35' E 010°06'81 4.4
2019-Jul-15 03:28N 41°43' E 008°18'1412.9
2019-Jul-15 02:25N 41°38' E 008°01'8010.2
2019-Jul-14 18:35N 41°05' E 006°24'21 2.5
2019-Jul-14 10:17N 41°02' E 005°57'1915.6
2019-Jul-14 09:04N 40°55' E 005°33'115.2
2019-Jul-14 09:00N 40°55' E 005°32'2515.5
2019-Jul-14 07:22N 40°46' E 005°01'1915.3
2019-Jul-14 06:08N 40°39' E 004°38'2214.9
2019-Jul-14 04:41N 40°31' E 004°11'815.1
2019-Jul-14 04:09N 40°27' E 004°02'215.3
2019-Jul-14 04:00N 40°26' E 003°59'815.8
2019-Jul-14 03:30N 40°23' E 003°49'1315.8
2019-Jul-14 02:39N 40°20' E 003°32'1116.1
2019-Jul-14 01:58N 40°15' E 003°19'2816.5
2019-Jul-14 00:18N 39°60' E 002°49'1016.4
2019-Jul-13 23:42N 39°54' E 002°39'416.4
2019-Jul-13 23:29N 39°52' E 002°35'2513.0
2019-Jul-13 21:32N 39°30' E 002°19'115.7
2019-Jul-13 21:30N 39°29' E 002°20'815.4
2019-Jul-13 21:00N 39°25' E 002°28'714.8
2019-Jul-13 20:30N 39°28' E 002°36'510.9
2019-Jul-13 20:00N 39°33' E 002°38'1 1.4
2019-Jul-13 19:29N 39°33' E 002°38'0 0.0
2019-Jul-13 18:59N 39°33' E 002°38'0 0.0
2019-Jul-13 18:26N 39°33' E 002°38'0 0.0
2019-Jul-13 17:59N 39°33' E 002°38'0 0.0
2019-Jul-13 17:29N 39°33' E 002°38'0 0.0
2019-Jul-13 16:59N 39°33' E 002°38'0 0.0
2019-Jul-13 16:29N 39°33' E 002°38'0 0.0
2019-Jul-13 15:59N 39°33' E 002°38'0 0.0
2019-Jul-13 15:29N 39°33' E 002°38'0 0.0
2019-Jul-13 14:59N 39°33' E 002°38'0 0.0
2019-Jul-13 14:29N 39°33' E 002°38'0 0.0
2019-Jul-13 13:59N 39°33' E 002°38'0 0.0
2019-Jul-13 13:29N 39°33' E 002°38'0 0.0
2019-Jul-13 12:59N 39°33' E 002°38'0 0.0
2019-Jul-13 12:29N 39°33' E 002°38'0 0.0
2019-Jul-13 11:59N 39°33' E 002°38'0 0.0
2019-Jul-13 11:29N 39°33' E 002°38'0 0.0
2019-Jul-13 10:59N 39°33' E 002°38'0 0.0
2019-Jul-13 10:29N 39°33' E 002°38'0 0.0
2019-Jul-13 09:59N 39°33' E 002°38'0 0.0
2019-Jul-13 09:29N 39°33' E 002°38'0 0.0
2019-Jul-13 08:59N 39°33' E 002°38'0 0.0
2019-Jul-13 08:29N 39°33' E 002°38'0 0.0
2019-Jul-13 08:00N 39°33' E 002°38'0 0.0
2019-Jul-13 07:29N 39°33' E 002°38'0 0.0
2019-Jul-13 06:56N 39°33' E 002°38'0 0.0
2019-Jul-13 06:29N 39°33' E 002°38'0 0.0
2019-Jul-13 05:59N 39°33' E 002°38'0 0.0
2019-Jul-13 05:29N 39°33' E 002°38'0 0.0
2019-Jul-13 04:59N 39°33' E 002°38'0 0.0
2019-Jul-13 04:29N 39°33' E 002°38'0 0.0
2019-Jul-13 03:59N 39°33' E 002°38'0 0.8
2019-Jul-13 03:30N 39°33' E 002°38'3 6.3
2019-Jul-13 03:00N 39°30' E 002°37'713.9
2019-Jul-13 02:30N 39°24' E 002°32'713.9
2019-Jul-13 02:00N 39°19' E 002°26'714.0
2019-Jul-13 01:30N 39°13' E 002°21'714.0
2019-Jul-13 01:00N 39°08' E 002°15'815.2
2019-Jul-13 00:30N 39°02' E 002°09'816.0
2019-Jul-13 00:00N 38°56' E 002°02'816.0
2019-Jul-12 23:31N 38°50' E 001°56'816.0
2019-Jul-12 23:00N 38°43' E 001°49'815.9
2019-Jul-12 22:30N 38°37' E 001°43'815.3
2019-Jul-12 22:00N 38°33' E 001°35'816.3
2019-Jul-12 21:31N 38°32' E 001°25'816.2
2019-Jul-12 21:00N 38°30' E 001°14'815.7
2019-Jul-12 20:31N 38°29' E 001°04'816.0
2019-Jul-12 20:00N 38°28' E 000°54'815.9
2019-Jul-12 19:30N 38°27' E 000°44'816.4
2019-Jul-12 19:00N 38°26' E 000°34'815.9
2019-Jul-12 18:30N 38°25' E 000°24'815.6
2019-Jul-12 18:00N 38°23' E 000°14'816.4
2019-Jul-12 17:30N 38°23' E 000°04'815.7
2019-Jul-12 17:00N 38°22' W 000°06'915.9
2019-Jul-12 16:25N 38°20' W 000°18'  
Track history (hours):
 
Tides and Currents Weather Stations Pressure Air Temp Water Temp Dewpoint Dewpoint Depression Visibility Wind Speed Wind Dir Waves Ship Positions

Legend Of The Seas

Operator: Royal Caribbean Cruises Ltd

Last reported at 2019-Jul-22 14:31 UTC. Time now 2019-Jul-22 14:37 UTC.
Position N 40°50' E 014°15'.

Type: Passenger vessel. MMSI: 311378000.

Date/timePositionNaut miles runAvg speedWind from/ knotsBaromVisibWave heightAir tempDewpointWater temp
2019-Jul-22 14:31N 40°50' E 014°15'0 0.0
2019-Jul-22 14:01N 40°50' E 014°15'0 0.0
2019-Jul-22 13:31N 40°50' E 014°15'0 0.0
2019-Jul-22 13:01N 40°50' E 014°15'0 0.0
2019-Jul-22 12:31N 40°50' E 014°15'0 0.0
2019-Jul-22 11:58N 40°50' E 014°15'0 0.0
2019-Jul-22 11:31N 40°50' E 014°15'0 0.0
2019-Jul-22 10:58N 40°50' E 014°15'0 0.0
2019-Jul-22 10:28N 40°50' E 014°15'0 0.0
2019-Jul-22 09:58N 40°50' E 014°15'0 0.0
2019-Jul-22 09:28N 40°50' E 014°15'0 0.0
2019-Jul-22 09:01N 40°50' E 014°15'0 0.0
2019-Jul-22 08:28N 40°50' E 014°15'0 0.0
2019-Jul-22 07:58N 40°50' E 014°15'0 0.0
2019-Jul-22 07:28N 40°50' E 014°15'0 0.0
2019-Jul-22 06:58N 40°50' E 014°15'0 0.0
2019-Jul-22 06:31N 40°50' E 014°15'0 0.0
2019-Jul-22 05:58N 40°50' E 014°15'0 0.1
2019-Jul-22 05:31N 40°50' E 014°15'2 3.9
2019-Jul-22 05:00N 40°49' E 014°17'713.6
2019-Jul-22 04:30N 40°43' E 014°12'816.1
2019-Jul-22 04:00N 40°37' E 014°06'815.8
2019-Jul-22 03:30N 40°32' E 013°57'815.8
2019-Jul-22 03:00N 40°28' E 013°48'815.8
2019-Jul-22 02:30N 40°25' E 013°39'815.9
2019-Jul-22 02:00N 40°21' E 013°30'816.0
2019-Jul-22 01:30N 40°18' E 013°20'815.7
2019-Jul-22 01:00N 40°15' E 013°10'815.6
2019-Jul-22 00:30N 40°12' E 013°01'815.7
2019-Jul-22 00:00N 40°08' E 012°52'815.7
2019-Jul-21 23:30N 40°05' E 012°43'815.7
2019-Jul-21 23:00N 40°01' E 012°34'815.6
2019-Jul-21 22:30N 39°58' E 012°24'815.7
2019-Jul-21 22:00N 39°55' E 012°15'815.6
2019-Jul-21 21:30N 39°51' E 012°06'815.6
2019-Jul-21 21:00N 39°48' E 011°57'815.5
2019-Jul-21 20:30N 39°45' E 011°48'918.6
2019-Jul-21 20:00N 39°41' E 011°37'1019.1
2019-Jul-21 19:30N 39°36' E 011°26'919.0
2019-Jul-21 19:00N 39°32' E 011°14'918.8
2019-Jul-21 18:30N 39°29' E 011°03'918.6
2019-Jul-21 18:00N 39°25' E 010°52'918.4
2019-Jul-21 17:30N 39°21' E 010°41'1918.6
2019-Jul-21 16:29N 39°13' E 010°19'918.8
2019-Jul-21 16:00N 39°09' E 010°09'5118.4
2019-Jul-21 13:13N 38°50' E 009°08'1218.4
2019-Jul-21 12:35N 38°45' E 008°54'318.2
2019-Jul-21 12:26N 38°44' E 008°51'817.9
2019-Jul-21 11:58N 38°44' E 008°40'1918.0
2019-Jul-21 10:54N 38°45' E 008°15'4418.3
2019-Jul-21 08:28N 38°49' E 007°18'817.9
2019-Jul-21 08:00N 38°50' E 007°08'1018.0
2019-Jul-21 07:27N 38°51' E 006°55'2217.7
2019-Jul-21 06:11N 38°54' E 006°27'317.7
2019-Jul-21 06:00N 38°54' E 006°23'1317.7
2019-Jul-21 05:17N 38°56' E 006°06'517.7
2019-Jul-21 05:00N 38°56' E 006°00'1717.8
2019-Jul-21 04:03N 38°58' E 005°39'117.9
2019-Jul-21 04:00N 38°59' E 005°37'917.8
2019-Jul-21 03:30N 38°60' E 005°26'917.9
2019-Jul-21 03:00N 39°01' E 005°15'918.0
2019-Jul-21 02:30N 39°02' E 005°03'1318.1
2019-Jul-21 01:49N 39°03' E 004°47'618.5
2019-Jul-21 01:29N 39°04' E 004°39'918.5
2019-Jul-21 01:00N 39°05' E 004°28'918.3
2019-Jul-21 00:30N 39°06' E 004°16'918.5
2019-Jul-21 00:00N 39°06' E 004°04'918.7
2019-Jul-20 23:30N 39°06' E 003°52'918.5
2019-Jul-20 23:00N 39°07' E 003°40'918.4
2019-Jul-20 22:30N 39°09' E 003°29'918.4
2019-Jul-20 22:00N 39°10' E 003°17'918.2
2019-Jul-20 21:30N 39°12' E 003°06'918.5
2019-Jul-20 21:00N 39°16' E 002°55'918.5
2019-Jul-20 20:30N 39°21' E 002°44'918.3
2019-Jul-20 20:00N 39°29' E 002°39'4 8.5
2019-Jul-20 19:30N 39°33' E 002°38'0 0.1
2019-Jul-20 19:00N 39°33' E 002°38'0 0.0
2019-Jul-20 18:27N 39°33' E 002°38'0 0.0
2019-Jul-20 18:00N 39°33' E 002°38'0 0.0
2019-Jul-20 17:27N 39°33' E 002°38'0 0.0
2019-Jul-20 16:57N 39°33' E 002°38'0 0.0
2019-Jul-20 16:30N 39°33' E 002°38'0 0.0
2019-Jul-20 15:57N 39°33' E 002°38'0 0.0
2019-Jul-20 15:27N 39°33' E 002°38'0 0.0
2019-Jul-20 14:57N 39°33' E 002°38'0 0.0
2019-Jul-20 14:24N 39°33' E 002°38'0 0.0
2019-Jul-20 13:57N 39°33' E 002°38'0 0.0
2019-Jul-20 13:27N 39°33' E 002°38'0 0.0
2019-Jul-20 12:57N 39°33' E 002°38'0 0.0
2019-Jul-20 12:30N 39°33' E 002°38'0 0.0
2019-Jul-20 11:57N 39°33' E 002°38'0 0.0
2019-Jul-20 11:27N 39°33' E 002°38'0 0.0
2019-Jul-20 10:57N 39°33' E 002°38'0 0.0
2019-Jul-20 10:30N 39°33' E 002°38'0 0.0
2019-Jul-20 10:00N 39°33' E 002°38'0 0.0
2019-Jul-20 09:30N 39°33' E 002°38'0 0.0
2019-Jul-20 08:57N 39°33' E 002°38'0 0.0
2019-Jul-20 08:27N 39°33' E 002°38'0 0.0
2019-Jul-20 07:57N 39°33' E 002°38'0 0.0
2019-Jul-20 07:27N 39°33' E 002°38'0 0.0
2019-Jul-20 06:57N 39°33' E 002°38'0 0.0
2019-Jul-20 06:30N 39°33' E 002°38'0 0.0
2019-Jul-20 06:00N 39°33' E 002°38'0 0.0
2019-Jul-20 05:30N 39°33' E 002°38'0 0.0
2019-Jul-20 04:57N 39°33' E 002°38'0 0.0
2019-Jul-20 04:30N 39°33' E 002°38'0 0.0
2019-Jul-20 04:00N 39°33' E 002°38'0 0.9
2019-Jul-20 03:30N 39°33' E 002°38'3 5.4
2019-Jul-20 03:00N 39°30' E 002°37'713.7
2019-Jul-20 02:30N 39°25' E 002°31'713.1
2019-Jul-20 02:00N 39°27' E 002°23'2613.2
2019-Jul-20 00:02N 39°51' E 002°10'013.6
2019-Jul-20 00:01N 39°51' E 002°10'713.9
2019-Jul-19 23:31N 39°58' E 002°09'1514.1
2019-Jul-19 22:28N 40°13' E 002°09'715.3
2019-Jul-19 22:00N 40°20' E 002°11'1915.2
2019-Jul-19 20:47N 40°38' E 002°11'415.4
2019-Jul-19 20:30N 40°42' E 002°11'1715.4
2019-Jul-19 19:25N 40°59' E 002°10'615.5
2019-Jul-19 19:01N 41°05' E 002°10'815.6
2019-Jul-19 18:31N 41°13' E 002°10'713.4
2019-Jul-19 18:00N 41°20' E 002°10'2 3.0
2019-Jul-19 17:28N 41°22' E 002°11'0 0.0
2019-Jul-19 16:58N 41°22' E 002°11'0 0.0
2019-Jul-19 16:28N 41°22' E 002°11'0 0.0
2019-Jul-19 15:58N 41°22' E 002°11'0 0.0
2019-Jul-19 15:28N 41°22' E 002°11'0 0.0
2019-Jul-19 06:52N 41°22' E 002°11'0 0.0
2019-Jul-19 06:30N 41°22' E 002°11'2 3.2
2019-Jul-19 06:00N 41°20' E 002°10'5 9.0
2019-Jul-19 05:30N 41°16' E 002°13'612.6
2019-Jul-19 05:00N 41°16' E 002°21'713.9
2019-Jul-19 04:31N 41°19' E 002°29'1214.1
2019-Jul-19 03:39N 41°25' E 002°44'416.2
2019-Jul-19 03:25N 41°27' E 002°48'18618.1
2019-Jul-18 17:07N 42°56' E 006°28'519.8
2019-Jul-18 16:52N 42°59' E 006°34'720.1
2019-Jul-18 16:31N 43°04' E 006°41'918.7
2019-Jul-18 16:01N 43°12' E 006°46'1018.7
2019-Jul-18 15:29N 43°22' E 006°46'1 0.1
2019-Jul-18 05:02N 43°23' E 006°47'1 8.9
2019-Jul-18 04:57N 43°22' E 006°48'4 9.9
2019-Jul-18 04:30N 43°22' E 006°54'816.1
2019-Jul-18 04:00N 43°24' E 007°05'816.8
2019-Jul-18 03:30N 43°26' E 007°16'917.2
2019-Jul-18 03:00N 43°28' E 007°28'816.9
2019-Jul-18 02:30N 43°30' E 007°39'816.7
2019-Jul-18 02:00N 43°32' E 007°50'816.4
2019-Jul-18 01:30N 43°34' E 008°01'815.2
2019-Jul-18 01:00N 43°36' E 008°11'0 0.5
2019-Jul-18 00:30N 43°36' E 008°11'0 0.4
2019-Jul-18 00:00N 43°36' E 008°12'0 0.6
2019-Jul-17 23:30N 43°36' E 008°12'1 1.5
2019-Jul-17 23:00N 43°36' E 008°13'3 6.6
2019-Jul-17 22:30N 43°36' E 008°18'815.1
2019-Jul-17 22:01N 43°38' E 008°28'815.9
2019-Jul-17 21:30N 43°40' E 008°39'815.7
2019-Jul-17 21:00N 43°42' E 008°49'815.8
2019-Jul-17 20:30N 43°45' E 008°59'815.7
2019-Jul-17 20:00N 43°47' E 009°10'815.4
2019-Jul-17 19:30N 43°49' E 009°20'815.3
2019-Jul-17 19:00N 43°50' E 009°30'815.4
2019-Jul-17 18:30N 43°52' E 009°41'815.4
2019-Jul-17 18:00N 43°55' E 009°51'714.8
2019-Jul-17 17:30N 43°58' E 009°60'4 7.8
2019-Jul-17 16:59N 44°02' E 010°02'0 0.0
2019-Jul-17 16:29N 44°02' E 010°02'0 0.0
2019-Jul-17 15:59N 44°02' E 010°02'0 0.0
2019-Jul-17 15:29N 44°02' E 010°02'0 0.0
2019-Jul-17 14:59N 44°02' E 010°02'0 0.0
2019-Jul-17 14:29N 44°02' E 010°02'0 0.0
2019-Jul-17 13:59N 44°02' E 010°02'0 0.0
2019-Jul-17 13:29N 44°02' E 010°02'0 0.0
2019-Jul-17 12:56N 44°02' E 010°02'0 0.0
2019-Jul-17 12:29N 44°02' E 010°02'0 0.0
2019-Jul-17 11:59N 44°02' E 010°02'0 0.0
2019-Jul-17 11:29N 44°02' E 010°02'0 0.0
2019-Jul-17 10:59N 44°02' E 010°02'0 0.0
2019-Jul-17 10:29N 44°02' E 010°02'0 0.0
2019-Jul-17 09:59N 44°02' E 010°02'0 0.0
2019-Jul-17 09:29N 44°02' E 010°02'0 0.0
2019-Jul-17 08:53N 44°02' E 010°02'0 0.0
2019-Jul-17 08:29N 44°02' E 010°02'0 0.0
2019-Jul-17 07:59N 44°02' E 010°02'0 0.0
2019-Jul-17 07:29N 44°02' E 010°02'0 0.0
2019-Jul-17 06:56N 44°02' E 010°02'0 0.0
2019-Jul-17 06:29N 44°02' E 010°02'0 0.0
2019-Jul-17 05:59N 44°02' E 010°02'0 0.7
2019-Jul-17 05:31N 44°02' E 010°03'510.5
2019-Jul-17 05:00N 43°56' E 010°01'714.4
2019-Jul-17 04:30N 43°50' E 009°58'815.8
2019-Jul-17 04:00N 43°43' E 009°52'815.3
2019-Jul-17 03:30N 43°36' E 009°47'815.8
2019-Jul-17 03:00N 43°29' E 009°44'815.8
2019-Jul-17 02:30N 43°21' E 009°42'815.8
2019-Jul-17 02:00N 43°13' E 009°40'815.9
2019-Jul-17 01:30N 43°05' E 009°38'816.0
2019-Jul-17 01:00N 42°57' E 009°41'815.4
2019-Jul-17 00:30N 42°51' E 009°46'815.9
2019-Jul-17 00:00N 42°46' E 009°55'816.2
2019-Jul-16 23:30N 42°42' E 010°04'1116.0
2019-Jul-16 22:48N 42°35' E 010°16'616.0
2019-Jul-16 22:27N 42°31' E 010°22'818.4
2019-Jul-16 22:00N 42°26' E 010°30'1019.3
2019-Jul-16 21:30N 42°19' E 010°40'1018.7
2019-Jul-16 20:58N 42°13' E 010°50'1019.3
2019-Jul-16 20:28N 42°09' E 011°02'44 2.0
2019-Jul-15 22:42N 41°39' E 010°19'315.0
2019-Jul-15 22:29N 41°38' E 010°15'714.9
2019-Jul-15 22:00N 41°35' E 010°06'81 4.4
2019-Jul-15 03:28N 41°43' E 008°18'1412.9
2019-Jul-15 02:25N 41°38' E 008°01'8010.2
2019-Jul-14 18:35N 41°05' E 006°24'21 2.5
2019-Jul-14 10:17N 41°02' E 005°57'1915.6
2019-Jul-14 09:04N 40°55' E 005°33'115.2
2019-Jul-14 09:00N 40°55' E 005°32'2515.5
2019-Jul-14 07:22N 40°46' E 005°01'1915.3
2019-Jul-14 06:08N 40°39' E 004°38'2214.9
2019-Jul-14 04:41N 40°31' E 004°11'815.1
2019-Jul-14 04:09N 40°27' E 004°02'215.3
2019-Jul-14 04:00N 40°26' E 003°59'815.8
2019-Jul-14 03:30N 40°23' E 003°49'1315.8
2019-Jul-14 02:39N 40°20' E 003°32'1116.1
2019-Jul-14 01:58N 40°15' E 003°19'2816.5
2019-Jul-14 00:18N 39°60' E 002°49'1016.4
2019-Jul-13 23:42N 39°54' E 002°39'416.4
2019-Jul-13 23:29N 39°52' E 002°35'2513.0
2019-Jul-13 21:32N 39°30' E 002°19'115.7
2019-Jul-13 21:30N 39°29' E 002°20'815.4
2019-Jul-13 21:00N 39°25' E 002°28'714.8
2019-Jul-13 20:30N 39°28' E 002°36'510.9
2019-Jul-13 20:00N 39°33' E 002°38'1 1.4
2019-Jul-13 19:29N 39°33' E 002°38'0 0.0
2019-Jul-13 18:59N 39°33' E 002°38'0 0.0
2019-Jul-13 18:26N 39°33' E 002°38'0 0.0
2019-Jul-13 17:59N 39°33' E 002°38'0 0.0
2019-Jul-13 17:29N 39°33' E 002°38'0 0.0
2019-Jul-13 16:59N 39°33' E 002°38'0 0.0
2019-Jul-13 16:29N 39°33' E 002°38'0 0.0
2019-Jul-13 15:59N 39°33' E 002°38'0 0.0
2019-Jul-13 15:29N 39°33' E 002°38'0 0.0
2019-Jul-13 14:59N 39°33' E 002°38'0 0.0
2019-Jul-13 14:29N 39°33' E 002°38'0 0.0
2019-Jul-13 13:59N 39°33' E 002°38'0 0.0
2019-Jul-13 13:29N 39°33' E 002°38'0 0.0
2019-Jul-13 12:59N 39°33' E 002°38'0 0.0
2019-Jul-13 12:29N 39°33' E 002°38'0 0.0
2019-Jul-13 11:59N 39°33' E 002°38'0 0.0
2019-Jul-13 11:29N 39°33' E 002°38'0 0.0
2019-Jul-13 10:59N 39°33' E 002°38'0 0.0
2019-Jul-13 10:29N 39°33' E 002°38'0 0.0
2019-Jul-13 09:59N 39°33' E 002°38'0 0.0
2019-Jul-13 09:29N 39°33' E 002°38'0 0.0
2019-Jul-13 08:59N 39°33' E 002°38'0 0.0
2019-Jul-13 08:29N 39°33' E 002°38'0 0.0
2019-Jul-13 08:00N 39°33' E 002°38'0 0.0
2019-Jul-13 07:29N 39°33' E 002°38'0 0.0
2019-Jul-13 06:56N 39°33' E 002°38'0 0.0
2019-Jul-13 06:29N 39°33' E 002°38'0 0.0
2019-Jul-13 05:59N 39°33' E 002°38'0 0.0
2019-Jul-13 05:29N 39°33' E 002°38'0 0.0
2019-Jul-13 04:59N 39°33' E 002°38'0 0.0
2019-Jul-13 04:29N 39°33' E 002°38'0 0.0
2019-Jul-13 03:59N 39°33' E 002°38'0 0.8
2019-Jul-13 03:30N 39°33' E 002°38'3 6.3
2019-Jul-13 03:00N 39°30' E 002°37'713.9
2019-Jul-13 02:30N 39°24' E 002°32'713.9
2019-Jul-13 02:00N 39°19' E 002°26'714.0
2019-Jul-13 01:30N 39°13' E 002°21'714.0
2019-Jul-13 01:00N 39°08' E 002°15'815.2
2019-Jul-13 00:30N 39°02' E 002°09'816.0
2019-Jul-13 00:00N 38°56' E 002°02'816.0
2019-Jul-12 23:31N 38°50' E 001°56'816.0
2019-Jul-12 23:00N 38°43' E 001°49'815.9
2019-Jul-12 22:30N 38°37' E 001°43'815.3
2019-Jul-12 22:00N 38°33' E 001°35'816.3
2019-Jul-12 21:31N 38°32' E 001°25'816.2
2019-Jul-12 21:00N 38°30' E 001°14'815.7
2019-Jul-12 20:31N 38°29' E 001°04'816.0
2019-Jul-12 20:00N 38°28' E 000°54'815.9
2019-Jul-12 19:30N 38°27' E 000°44'816.4
2019-Jul-12 19:00N 38°26' E 000°34'815.9
2019-Jul-12 18:30N 38°25' E 000°24'815.6
2019-Jul-12 18:00N 38°23' E 000°14'816.4
2019-Jul-12 17:30N 38°23' E 000°04'815.7
2019-Jul-12 17:00N 38°22' W 000°06'915.9
2019-Jul-12 16:25N 38°20' W 000°18'  

Dump ship's entire track history